M I D A S
Marine Information and Data Acquisition System
Tripno 966 of the Zeeleeuw from 2005-10-04 06:33:46 to 2005-10-04 17:37:35
Back to CruiseResearch ActivitiesStationsMapUnderway DataData graphs

EquipmentUnitsComment
TimeDGPSUTC
LatitudeDGPSDM.mWGS84
LongitudeDGPSDM.mWGS84
HeadingGyrodeg 
SOGDGPSknotsSpeed over ground
COGDGPSdegCourse over ground
DepthEcho soundermeters200 kHz
Missing or incorrect values are displayed as -999
Navigation data collected by the RV Zeeleeuw from 2005-10-04 06:35:46 to 2005-10-04 17:46:46
Time Latitude Longitude Heading SOG COG Depth
2005-10-04 06:36:52 51°13.617 2°56.028 113.1 3.6 290 -999
2005-10-04 06:37:51 51°13.646 2°55.931 127.8 4.5 302 -999
2005-10-04 06:38:52 51°13.695 2°55.831 133.5 5 310 -999
2005-10-04 06:39:51 51°13.757 2°55.729 143.1 5.7 319 -999
2005-10-04 06:40:51 51°13.836 2°55.647 160.3 5.4 336 -999
2005-10-04 06:41:51 51°13.919 2°55.626 192 4.6 4 -999
2005-10-04 06:42:51 51°13.964 2°55.643 224.6 0.6 345 10
2005-10-04 06:43:51 51°13.987 2°55.563 319.4 5.3 315 8.6
2005-10-04 06:44:51 51°14.096 2°55.447 334.5 8.9 330 9.1
2005-10-04 06:45:51 51°14.231 2°55.305 327.6 10.1 321 9
2005-10-04 06:46:51 51°14.344 2°55.089 311.4 11 307 9.1
2005-10-04 06:47:51 51°14.463 2°54.826 315.5 12.9 309 9
2005-10-04 06:48:51 51°14.612 2°54.572 326 13.1 315 8.4
2005-10-04 06:49:51 51°14.781 2°54.369 336.8 12.6 327 7.9
2005-10-04 06:50:51 51°14.954 2°54.186 336.2 12.4 326 7.2
2005-10-04 06:51:51 51°15.123 2°54.001 338.4 12.3 327 7.3
2005-10-04 06:52:51 51°15.3 2°53.826 341.1 12.8 328 8.1
2005-10-04 06:53:51 51°15.482 2°53.652 340.9 12.8 328 8.9
2005-10-04 06:54:51 51°15.662 2°53.472 340.7 12.8 328 9.4
2005-10-04 06:55:51 51°15.843 2°53.297 341.4 12.6 331 10
2005-10-04 06:56:51 51°16.026 2°53.132 346.3 12.5 334 10.5
2005-10-04 06:57:51 51°16.212 2°52.983 344.7 12.6 331 10.7
2005-10-04 06:58:51 51°16.404 2°52.874 355.3 12.2 344 10.8
2005-10-04 06:59:51 51°16.601 2°52.795 356.5 12.2 347 10
2005-10-04 07:00:51 51°16.797 2°52.726 357 11.9 348 8.2
2005-10-04 07:01:51 51°16.991 2°52.654 354.4 12.1 346 8.7
2005-10-04 07:02:51 51°17.186 2°52.598 358.7 11.9 348 8.4
2005-10-04 07:03:51 51°17.38 2°52.525 355.6 12.1 346 8.9
2005-10-04 07:04:51 51°17.576 2°52.513 11.7 11.8 3 9
2005-10-04 07:05:51 51°17.77 2°52.528 10.9 11.6 2 9
2005-10-04 07:06:51 51°17.959 2°52.568 22.3 11.4 16 9.2
2005-10-04 07:07:51 51°18.144 2°52.635 22.7 11.5 14 9.5
2005-10-04 07:08:51 51°18.332 2°52.699 20.7 11.6 10 9.7
2005-10-04 07:09:51 51°18.525 2°52.734 15.4 11.6 6 10.1
2005-10-04 07:10:51 51°18.716 2°52.759 17.5 11.6 5 10.3
2005-10-04 07:11:51 51°18.907 2°52.779 16 11.5 4 10.9
2005-10-04 07:12:51 51°19.098 2°52.803 16.4 11.5 4 11.6
2005-10-04 07:13:51 51°19.29 2°52.822 15.6 11.6 3 12.4
2005-10-04 07:14:51 51°19.483 2°52.823 11.9 11.7 359 13.3
2005-10-04 07:15:51 51°19.678 2°52.817 10.5 11.8 358 14.1
2005-10-04 07:16:51 51°19.874 2°52.801 9.1 11.8 356 14.7
2005-10-04 07:17:51 51°20.069 2°52.797 11.6 11.7 359 15
2005-10-04 07:18:51 51°20.265 2°52.789 10.8 11.8 359 15.1
2005-10-04 07:19:51 51°20.46 2°52.779 11.2 11.8 -999 15.1
2005-10-04 07:20:51 51°20.655 2°52.779 12.6 11.8 1 15
2005-10-04 07:21:51 51°20.847 2°52.802 19.5 11.4 8 13.5
2005-10-04 07:22:51 51°21.023 2°52.902 30.6 11.3 22 14
2005-10-04 07:23:51 51°21.198 2°53.01 31.1 11.3 21 14.1
2005-10-04 07:24:51 51°21.373 2°53.119 31.5 11.3 23 14.6
2005-10-04 07:25:51 51°21.55 2°53.223 30.7 11.3 21 15.5
2005-10-04 07:26:51 51°21.727 2°53.329 29.8 11.4 19 16.6
2005-10-04 07:27:51 51°21.906 2°53.431 30.9 11.5 20 18.1
2005-10-04 07:28:52 51°22.085 2°53.537 30.7 11.4 21 18.9
2005-10-04 07:29:52 51°22.261 2°53.649 31.1 11.4 20 20.1
2005-10-04 07:30:52 51°22.424 2°53.793 42 11.1 32 20.9
2005-10-04 07:31:52 51°22.579 2°53.954 43.7 11.1 36 21.8
2005-10-04 07:32:52 51°22.736 2°54.113 41.7 11.3 34 21.6
2005-10-04 07:33:52 51°22.893 2°54.286 41.4 11.5 36 20.1
2005-10-04 07:34:52 51°23.052 2°54.459 40.7 11.6 33 19.2
2005-10-04 07:35:52 51°23.208 2°54.632 42.8 11.3 36 18.8
2005-10-04 07:36:52 51°23.362 2°54.801 40.4 11.3 33 18.6
2005-10-04 07:37:52 51°23.516 2°54.968 41 11.2 34 18.1
2005-10-04 07:38:52 51°23.67 2°55.134 40.6 11.1 33 19.3
2005-10-04 07:39:52 51°23.824 2°55.298 41.1 11.1 33 19.1
2005-10-04 07:40:52 51°23.979 2°55.458 41.3 11.1 36 19.7
2005-10-04 07:41:52 51°24.075 2°55.701 65.6 10.9 63 20.4
2005-10-04 07:42:52 51°24.159 2°55.962 65.2 11.1 61 20.3
2005-10-04 07:43:52 51°24.245 2°56.225 66.3 11.1 65 19.8
2005-10-04 07:44:52 51°24.31 2°56.503 70.1 11.2 67 18.3
2005-10-04 07:45:52 51°24.377 2°56.783 70.5 11.3 68 15
2005-10-04 07:46:52 51°24.446 2°57.061 68.9 11.2 67 16.3
2005-10-04 07:47:52 51°24.538 2°57.316 54.3 11.1 51 17.5
2005-10-04 07:48:52 51°24.638 2°57.567 60.7 11.2 57 18
2005-10-04 07:49:52 51°24.739 2°57.822 61.4 11.3 58 18.6
2005-10-04 07:50:52 51°24.854 2°58.057 49.2 11.2 40 18.5
2005-10-04 07:51:52 51°25.006 2°58.227 42.5 11.2 36 19.2
2005-10-04 07:52:52 51°25.159 2°58.399 41.5 11.1 35 19.8
2005-10-04 07:53:52 51°25.311 2°58.57 40.9 11.2 34 20.7
2005-10-04 07:54:52 51°25.464 2°58.737 41.8 11 36 21.5
2005-10-04 07:55:52 51°25.613 2°58.902 39.9 10.9 34 22
2005-10-04 07:56:52 51°25.761 2°59.072 41.3 11 35 22.4
2005-10-04 07:57:52 51°25.909 2°59.242 40.3 10.9 35 23
2005-10-04 07:58:52 51°26.058 2°59.409 40.7 11 36 23.6
2005-10-04 07:59:52 51°26.209 2°59.574 41.7 10.9 36 24.2
2005-10-04 08:00:52 51°26.358 2°59.74 41.7 10.8 36 24.5
2005-10-04 08:01:52 51°26.509 2°59.894 35.8 10.8 32 24.5
2005-10-04 08:02:52 51°26.655 3°0.063 42.7 10.9 37 24.4
2005-10-04 08:03:52 51°26.803 3°0.231 41.1 10.9 37 24.2
2005-10-04 08:04:52 51°26.949 3°0.403 41.7 10.8 37 24
2005-10-04 08:05:52 51°27.096 3°0.573 41.8 10.9 35 23.8
2005-10-04 08:06:52 51°27.244 3°0.739 41.2 10.9 35 23.3
2005-10-04 08:07:52 51°27.392 3°0.903 40.6 10.9 34 22.6
2005-10-04 08:08:52 51°27.542 3°1.067 40.9 11 34 22.7
2005-10-04 08:09:52 51°27.693 3°1.232 41 11 35 23
2005-10-04 08:10:52 51°27.846 3°1.398 41.3 11.1 34 23.1
2005-10-04 08:11:52 51°27.999 3°1.566 41.1 11.1 34 23.1
2005-10-04 08:12:52 51°28.153 3°1.733 40.5 11.2 34 22.9
2005-10-04 08:13:52 51°28.308 3°1.902 40.5 11.3 34 22.8
2005-10-04 08:14:52 51°28.461 3°2.071 40.9 11.2 34 22.9
2005-10-04 08:15:52 51°28.616 3°2.242 40.6 11.3 33 22.6
2005-10-04 08:16:52 51°28.769 3°2.413 41.1 11.3 36 22.3
2005-10-04 08:17:52 51°28.904 3°2.62 50.8 11.3 47 22.4
2005-10-04 08:18:52 51°29.032 3°2.841 52.3 11.3 47 22.3
2005-10-04 08:19:52 51°29.162 3°3.062 50.8 11.4 48 22.6
2005-10-04 08:20:52 51°29.276 3°3.306 56.4 11.3 54 21.9
2005-10-04 08:21:52 51°29.391 3°3.549 55.6 11.5 54 22.5
2005-10-04 08:22:52 51°29.507 3°3.795 55.1 11.4 53 22.3
2005-10-04 08:23:52 51°29.623 3°4.039 55.3 11.5 52 22.2
2005-10-04 08:24:52 51°29.739 3°4.285 55.4 11.6 53 22.3
2005-10-04 08:25:52 51°29.856 3°4.532 55.8 11.5 54 22.2
2005-10-04 08:26:52 51°29.971 3°4.776 55 11.5 52 22.1
2005-10-04 08:27:52 51°30.085 3°5.019 55.8 11.5 53 23
2005-10-04 08:28:52 51°30.2 3°5.265 54.9 11.6 52 23.1
2005-10-04 08:29:52 51°30.317 3°5.514 55.8 11.7 53 22.7
2005-10-04 08:30:52 51°30.432 3°5.759 55.4 11.6 52 23.1
2005-10-04 08:31:52 51°30.547 3°6.008 56.4 11.6 54 22.5
2005-10-04 08:32:52 51°30.661 3°6.255 56.3 11.5 52 23.2
2005-10-04 08:33:52 51°30.776 3°6.502 55.4 11.5 54 22
2005-10-04 08:34:52 51°30.891 3°6.747 56.1 11.4 54 23
2005-10-04 08:35:52 51°31.005 3°6.993 55.4 11.5 54 22.7
2005-10-04 08:36:52 51°31.12 3°7.241 56.3 11.6 53 23
2005-10-04 08:37:52 51°31.234 3°7.489 55.4 11.6 54 22
2005-10-04 08:38:52 51°31.349 3°7.734 55.9 11.5 55 21.9
2005-10-04 08:39:52 51°31.461 3°7.978 55 11.3 51 22.2
2005-10-04 08:40:52 51°31.574 3°8.219 55.2 11.2 52 22.7
2005-10-04 08:41:52 51°31.689 3°8.46 55.1 11.4 52 22.3
2005-10-04 08:42:52 51°31.803 3°8.699 55.1 11.3 55 22.1
2005-10-04 08:43:52 51°31.915 3°8.941 56.2 11.2 54 22.6
2005-10-04 08:44:52 51°32.026 3°9.178 55.7 11.1 53 22.2
2005-10-04 08:45:52 51°32.139 3°9.411 55.5 11.1 53 22.9
2005-10-04 08:46:52 51°32.251 3°9.647 55.7 11 54 23
2005-10-04 08:47:52 51°32.364 3°9.88 55.3 11.1 52 23.4
2005-10-04 08:48:52 51°32.476 3°10.114 55.4 11 52 23.3
2005-10-04 08:49:52 51°32.589 3°10.347 55.8 11.1 53 23.8
2005-10-04 08:50:52 51°32.699 3°10.585 55.2 11.2 54 24.4
2005-10-04 08:51:52 51°32.811 3°10.821 55.6 11.1 52 24.7
2005-10-04 08:52:52 51°32.922 3°11.059 55.7 11.1 53 24.8
2005-10-04 08:53:52 51°33.033 3°11.297 55.4 11.1 52 25
2005-10-04 08:54:52 51°33.144 3°11.536 55.9 11.2 53 26
2005-10-04 08:55:52 51°33.257 3°11.772 54.8 11.2 51 26.4
2005-10-04 08:56:52 51°33.372 3°12.008 54.5 11.1 50 26.3
2005-10-04 08:57:52 51°33.484 3°12.245 55.1 11.2 53 26.9
2005-10-04 08:58:52 51°33.595 3°12.484 55.8 11.1 55 26.9
2005-10-04 08:59:52 51°33.708 3°12.721 55.6 11.1 54 26.9
2005-10-04 09:00:52 51°33.82 3°12.959 55.9 11.2 52 26.7
2005-10-04 09:01:52 51°33.933 3°13.197 54.9 11.2 51 26.6
2005-10-04 09:02:52 51°34.045 3°13.437 55.8 11.2 53 27.4
2005-10-04 09:03:52 51°34.158 3°13.677 55.8 11.2 54 28.1
2005-10-04 09:04:52 51°34.273 3°13.919 55.2 11.4 52 28.4
2005-10-04 09:05:52 51°34.388 3°14.161 55.4 11.4 54 27.4
2005-10-04 09:06:52 51°34.504 3°14.403 55.3 11.4 53 28.2
2005-10-04 09:07:52 51°34.619 3°14.646 55.3 11.5 52 29.3
2005-10-04 09:08:52 51°34.737 3°14.892 55.5 11.6 53 30.7
2005-10-04 09:09:52 51°34.851 3°15.141 56.6 11.6 55 31.1
2005-10-04 09:10:52 51°34.931 3°15.421 70.2 11.4 70 30.8
2005-10-04 09:11:52 51°34.994 3°15.711 70.7 11.5 71 29.6
2005-10-04 09:12:52 51°35.055 3°16.001 70.9 11.5 72 28.4
2005-10-04 09:13:52 51°35.155 3°16.25 55.3 11.2 53 28.6
2005-10-04 09:14:51 51°35.264 3°16.485 54.8 11.1 52 28.9
2005-10-04 09:15:52 51°35.377 3°16.727 55.1 11.1 53 28.2
2005-10-04 09:16:52 51°35.488 3°16.963 55.1 11.1 53 28.8
2005-10-04 09:17:52 51°35.601 3°17.201 54.3 11.1 52 28.5
2005-10-04 09:18:52 51°35.711 3°17.437 55.8 11.1 54 27.1
2005-10-04 09:19:52 51°35.822 3°17.674 55.3 11 52 27.4
2005-10-04 09:20:52 51°35.933 3°17.912 55.8 11.1 53 27
2005-10-04 09:21:52 51°36.041 3°18.151 56.2 11.1 54 26.5
2005-10-04 09:22:52 51°36.152 3°18.388 55.8 11.1 54 26.6
2005-10-04 09:23:52 51°36.261 3°18.624 55 11 54 26.4
2005-10-04 09:24:52 51°36.37 3°18.862 55.8 11 54 26
2005-10-04 09:25:52 51°36.479 3°19.102 55.9 11.1 55 25.8
2005-10-04 09:26:52 51°36.602 3°19.316 45.1 11 42 26.1
2005-10-04 09:27:52 51°36.738 3°19.511 45.7 11 42 26.4
2005-10-04 09:28:52 51°36.875 3°19.712 46.4 11.2 43 26.8
2005-10-04 09:29:52 51°37.011 3°19.912 45.1 11.2 41 26.9
2005-10-04 09:30:52 51°37.15 3°20.115 45.8 11.3 42 27.2
2005-10-04 09:31:52 51°37.292 3°20.319 45.3 11.4 42 27.4
2005-10-04 09:32:52 51°37.432 3°20.525 45.1 11.4 42 27.2
2005-10-04 09:33:52 51°37.572 3°20.731 46 11.4 43 27
2005-10-04 09:34:52 51°37.711 3°20.939 45.5 11.4 42 26.8
2005-10-04 09:35:52 51°37.85 3°21.15 46.4 11.5 43 26.7
2005-10-04 09:36:52 51°37.992 3°21.359 46.1 11.5 43 26.5
2005-10-04 09:37:52 51°38.133 3°21.567 46.1 11.6 43 26.3
2005-10-04 09:38:52 51°38.274 3°21.776 46 11.6 42 26
2005-10-04 09:39:52 51°38.412 3°21.996 50.8 11.7 48 25.6
2005-10-04 09:40:52 51°38.542 3°22.23 51.7 11.9 49 25
2005-10-04 09:41:52 51°38.673 3°22.466 50.8 11.7 47 24.2
2005-10-04 09:42:52 51°38.804 3°22.701 50.8 11.8 49 23.4
2005-10-04 09:43:52 51°38.936 3°22.937 50.8 11.8 49 22.5
2005-10-04 09:44:52 51°39.067 3°23.171 51.2 11.8 49 22.4
2005-10-04 09:45:52 51°39.197 3°23.405 50.6 11.7 49 21.1
2005-10-04 09:46:52 51°39.326 3°23.639 50.1 11.7 48 20.6
2005-10-04 09:47:52 51°39.446 3°23.887 54.9 11.7 53 20.6
2005-10-04 09:48:52 51°39.56 3°24.143 55.8 11.7 54 20.5
2005-10-04 09:49:52 51°39.675 3°24.398 55.2 11.7 54 19.9
2005-10-04 09:50:52 51°39.79 3°24.655 56.2 11.9 55 19.7
2005-10-04 09:51:52 51°39.907 3°24.911 54.3 11.9 54 19.2
2005-10-04 09:52:52 51°40.023 3°25.17 55.2 11.9 54 19.1
2005-10-04 09:53:52 51°40.136 3°25.429 55.8 11.8 55 19.1
2005-10-04 09:54:52 51°40.252 3°25.685 54.8 11.9 54 18.7
2005-10-04 09:55:52 51°40.368 3°25.944 56.2 11.9 55 18.8
2005-10-04 09:56:52 51°40.497 3°26.176 41.5 11.6 39 18.2
2005-10-04 09:57:52 51°40.651 3°26.366 40 11.7 37 16.6
2005-10-04 09:58:52 51°40.802 3°26.563 39.7 11.8 39 16.7
2005-10-04 09:59:52 51°40.955 3°26.757 39.9 11.7 38 16.4
2005-10-04 10:00:52 51°41.107 3°26.951 41.9 11.8 40 18.2
2005-10-04 10:01:52 51°41.259 3°27.146 40.6 11.7 37 17.6
2005-10-04 10:02:52 51°41.413 3°27.341 40.6 11.8 39 16.7
2005-10-04 10:03:52 51°41.566 3°27.535 41.1 11.6 38 16.2
2005-10-04 10:04:52 51°41.718 3°27.729 39.9 11.8 38 15.8
2005-10-04 10:05:52 51°41.872 3°27.923 40.3 11.7 37 14.4
2005-10-04 10:06:52 51°42.027 3°28.116 40.2 11.7 38 12.2
2005-10-04 10:07:52 51°42.18 3°28.306 41 11.6 37 10
2005-10-04 10:08:52 51°42.334 3°28.498 40.7 11.6 37 12.3
2005-10-04 10:09:52 51°42.486 3°28.689 39.9 11.5 37 12.6
2005-10-04 10:10:52 51°42.637 3°28.878 40.8 11.6 36 15.7
2005-10-04 10:11:52 51°42.787 3°29.065 40.4 11.4 38 15.6
2005-10-04 10:12:52 51°42.938 3°29.252 40.4 11.5 38 16.2
2005-10-04 10:13:52 51°43.088 3°29.439 40.1 11.3 37 16
2005-10-04 10:14:52 51°43.239 3°29.624 40.1 11.3 37 15.8
2005-10-04 10:15:52 51°43.389 3°29.807 39.8 11.4 35 16
2005-10-04 10:16:52 51°43.541 3°29.991 40.9 11.3 38 17.3
2005-10-04 10:17:52 51°43.693 3°30.174 40.9 11.3 35 19.3
2005-10-04 10:18:52 51°43.847 3°30.352 38.7 11.4 34 17
2005-10-04 10:19:52 51°43.999 3°30.531 40.1 11.4 36 18.3
2005-10-04 10:20:52 51°44.154 3°30.711 40.4 11.4 35 18.6
2005-10-04 10:21:52 51°44.307 3°30.888 40.8 11.4 36 19.4
2005-10-04 10:22:52 51°44.461 3°31.066 40 11.4 36 19.8
2005-10-04 10:23:52 51°44.579 3°31.295 64.5 11.4 66 18.7
2005-10-04 10:24:52 51°44.644 3°31.586 70.3 11.5 70 17.8
2005-10-04 10:25:52 51°44.711 3°31.879 70.4 11.7 69 19
2005-10-04 10:26:52 51°44.779 3°32.173 69.6 11.7 68 17.2
2005-10-04 10:27:52 51°44.847 3°32.468 71 11.7 68 15
2005-10-04 10:28:52 51°44.914 3°32.763 69.8 11.7 69 13.1
2005-10-04 10:29:52 51°44.981 3°33.059 70.7 11.7 69 12.4
2005-10-04 10:30:52 51°45.048 3°33.357 71.1 11.8 70 12.3
2005-10-04 10:31:52 51°45.114 3°33.656 70.4 11.9 70 12.2
2005-10-04 10:32:52 51°45.18 3°33.957 69.9 11.9 70 12.2
2005-10-04 10:33:52 51°45.249 3°34.257 70 12 69 12
2005-10-04 10:34:52 51°45.318 3°34.559 70 11.9 70 11.8
2005-10-04 10:35:52 51°45.389 3°34.86 70 12 68 12.4
2005-10-04 10:36:52 51°45.459 3°35.162 70 11.9 71 12.3
2005-10-04 10:37:52 51°45.531 3°35.464 70.2 12 69 12.1
2005-10-04 10:38:52 51°45.601 3°35.763 69.3 12 68 12.4
2005-10-04 10:39:52 51°45.651 3°36 74.5 6.8 82 11.9
2005-10-04 10:40:52 51°45.628 3°36.128 108.8 4.4 123 11.9
2005-10-04 10:41:52 51°45.581 3°36.201 133.7 4.8 155 11.6
2005-10-04 10:42:52 51°45.497 3°36.187 195.3 4.9 197 11.4
2005-10-04 10:43:52 51°45.422 3°36.158 187.2 4.4 192 11.5
2005-10-04 10:44:52 51°45.352 3°36.137 183 4.1 189 11.3
2005-10-04 10:45:52 51°45.29 3°36.12 179.4 3.5 189 11.1
2005-10-04 10:46:52 51°45.237 3°36.104 180 3.1 191 10.9
2005-10-04 10:47:52 51°45.189 3°36.088 178.5 2.8 190 10.8
2005-10-04 10:48:52 51°45.143 3°36.072 181 2.8 193 10.5
2005-10-04 10:49:52 51°45.099 3°36.054 182.7 2.7 193 10.4
2005-10-04 10:50:52 51°45.053 3°36.036 184.6 2.9 193 10.4
2005-10-04 10:51:52 51°45.005 3°36.018 183.7 3.1 191 10.2
2005-10-04 10:52:52 51°44.955 3°35.999 183.3 3.1 192 10.1
2005-10-04 10:53:52 51°44.907 3°35.984 181.9 3 192 10
2005-10-04 10:54:52 51°44.858 3°35.97 178.1 2.9 190 9.9
2005-10-04 10:55:52 51°44.811 3°35.958 178.9 2.9 189 9.9
2005-10-04 10:56:52 51°44.763 3°35.946 179.7 2.9 189 9.7
2005-10-04 10:57:52 51°44.715 3°35.933 180.3 2.9 191 9.4
2005-10-04 10:58:52 51°44.667 3°35.921 180.1 2.9 187 9.5
2005-10-04 10:59:52 51°44.621 3°35.906 188.2 2.8 195 9.4
2005-10-04 11:00:52 51°44.577 3°35.878 207.1 3 208 9.3
2005-10-04 11:01:52 51°44.535 3°35.837 229.2 2.9 218 9.1
2005-10-04 11:02:52 51°44.503 3°35.785 251 2.8 233 9.1
2005-10-04 11:03:52 51°44.481 3°35.722 277.3 2.7 250 9
2005-10-04 11:04:52 51°44.47 3°35.645 284.7 3.1 257 9.1
2005-10-04 11:05:52 51°44.461 3°35.559 283.5 3.3 262 9.2
2005-10-04 11:06:52 51°44.451 3°35.469 285.2 3.4 259 9.2
2005-10-04 11:07:52 51°44.44 3°35.382 283.5 3.2 258 9.3
2005-10-04 11:08:52 51°44.43 3°35.305 285.5 2.8 256 9.4
2005-10-04 11:09:52 51°44.419 3°35.233 285.2 2.7 255 9.6
2005-10-04 11:10:52 51°44.407 3°35.163 284.2 2.8 254 9.8
2005-10-04 11:11:52 51°44.394 3°35.092 281.6 2.7 251 9.9
2005-10-04 11:12:52 51°44.378 3°35.022 280.3 2.8 251 10.1
2005-10-04 11:13:52 51°44.364 3°34.953 283.2 2.7 251 10.2
2005-10-04 11:14:52 51°44.352 3°34.884 281.4 2.8 249 10.4
2005-10-04 11:15:52 51°44.336 3°34.813 279.4 2.8 250 10.6
2005-10-04 11:16:52 51°44.327 3°34.738 294.5 3.1 266 10.6
2005-10-04 11:17:52 51°44.334 3°34.658 313.2 3 286 10.7
2005-10-04 11:18:52 51°44.357 3°34.594 333.8 2.7 307 11
2005-10-04 11:19:52 51°44.391 3°34.555 356.8 2.4 339 11.2
2005-10-04 11:20:52 51°44.421 3°34.553 22.2 1 6 11.3
2005-10-04 11:21:52 51°44.427 3°34.551 21.8 0.1 256 11.5
2005-10-04 11:22:52 51°44.434 3°34.557 41.2 1.2 60 11.5
2005-10-04 11:23:52 51°44.446 3°34.6 43.3 2.2 51 11.4
2005-10-04 11:24:52 51°44.476 3°34.649 43 2.8 47 11.7
2005-10-04 11:25:52 51°44.502 3°34.71 48.6 2.6 57 11.5
2005-10-04 11:26:52 51°44.528 3°34.761 42 2.3 45 11.6
2005-10-04 11:27:52 51°44.555 3°34.801 38 2.3 43 11.7
2005-10-04 11:28:52 51°44.583 3°34.843 41.7 2.3 48 11.7
2005-10-04 11:29:52 51°44.607 3°34.899 51.5 2.7 54 11.7
2005-10-04 11:30:52 51°44.63 3°34.965 51.9 2.8 61 11.8
2005-10-04 11:31:52 51°44.652 3°35.028 50.5 2.6 57 11.5
2005-10-04 11:32:52 51°44.676 3°35.088 49.2 2.8 59 11.5
2005-10-04 11:33:52 51°44.695 3°35.158 64.3 3 74 11.4
2005-10-04 11:34:52 51°44.702 3°35.234 70.4 2.5 80 11.5
2005-10-04 11:35:52 51°44.704 3°35.302 69.1 2.5 88 11.2
2005-10-04 11:36:52 51°44.708 3°35.368 67.3 2.5 86 11
2005-10-04 11:37:52 51°44.713 3°35.432 63.9 2.3 78 10.9
2005-10-04 11:38:52 51°44.721 3°35.494 63.1 2.4 79 10.8
2005-10-04 11:39:52 51°44.727 3°35.56 69.1 2.5 86 10.5
2005-10-04 11:40:52 51°44.729 3°35.63 73.3 2.7 93 10.4
2005-10-04 11:41:52 51°44.728 3°35.702 74.8 2.8 96 10.2
2005-10-04 11:42:52 51°44.728 3°35.773 71.6 2.6 91 10
2005-10-04 11:43:52 51°44.729 3°35.842 71.2 2.6 88 10.1
2005-10-04 11:44:52 51°44.73 3°35.913 72.1 2.7 91 10
2005-10-04 11:45:52 51°44.731 3°35.985 71.8 2.6 85 9.8
2005-10-04 11:46:52 51°44.732 3°36.056 71.5 2.6 87 9.9
2005-10-04 11:47:52 51°44.732 3°36.127 73.2 2.6 85 9.7
2005-10-04 11:48:52 51°44.733 3°36.199 71.2 2.7 91 9.6
2005-10-04 11:49:52 51°44.733 3°36.271 71.7 2.7 91 9.6
2005-10-04 11:50:52 51°44.734 3°36.344 71.1 2.8 91 9.6
2005-10-04 11:51:52 51°44.738 3°36.419 70.8 2.9 90 9.5
2005-10-04 11:52:52 51°44.74 3°36.494 70.9 2.8 87 9.4
2005-10-04 11:53:52 51°44.742 3°36.569 71.8 2.8 91 9.5
2005-10-04 11:54:52 51°44.744 3°36.644 70.2 2.8 86 9.4
2005-10-04 11:55:52 51°44.747 3°36.72 71.9 2.9 86 9.4
2005-10-04 11:56:52 51°44.751 3°36.797 71 2.8 84 9.3
2005-10-04 11:57:52 51°44.752 3°36.873 72.5 2.8 88 9.4
2005-10-04 11:58:52 51°44.754 3°36.951 70.9 2.9 86 9.4
2005-10-04 11:59:52 51°44.757 3°37.029 70.2 3 85 9.3
2005-10-04 12:00:53 51°44.761 3°37.111 70.9 3.1 89 9.2
2005-10-04 12:01:52 51°44.758 3°37.2 85.9 3.4 96 9.2
2005-10-04 12:02:53 51°44.742 3°37.298 96.4 3.8 105 9.2
2005-10-04 12:03:52 51°44.722 3°37.396 101.6 4 111 9.2
2005-10-04 12:04:52 51°44.699 3°37.484 101.9 3 114 9.2
2005-10-04 12:05:52 51°44.68 3°37.542 101.8 2.1 122 9.3
2005-10-04 12:06:53 51°44.661 3°37.584 102.3 1.8 130 9.3
2005-10-04 12:07:52 51°44.644 3°37.614 101.1 1.5 142 9.3
2005-10-04 12:08:52 51°44.627 3°37.636 106 1.2 145 9.2
2005-10-04 12:09:52 51°44.608 3°37.653 109.8 1.2 151 9.2
2005-10-04 12:10:52 51°44.589 3°37.666 113.3 1.2 155 9.3
2005-10-04 12:11:52 51°44.564 3°37.697 135.3 3.4 139 9.1
2005-10-04 12:12:52 51°44.49 3°37.697 221.6 4.9 221 9.1
2005-10-04 12:13:52 51°44.478 3°37.528 276.1 8.6 268 8.8
2005-10-04 12:14:53 51°44.455 3°37.231 269.8 11.8 263 8.2
2005-10-04 12:15:52 51°44.452 3°36.918 278.7 12 272 8.3
2005-10-04 12:16:52 51°44.461 3°36.593 278.2 12.2 273 8.8
2005-10-04 12:17:52 51°44.461 3°36.264 273.7 12.3 265 9.3
2005-10-04 12:18:52 51°44.437 3°35.935 269.2 12.3 263 9.5
2005-10-04 12:19:53 51°44.414 3°35.602 270.2 12.3 264 9.6
2005-10-04 12:20:52 51°44.384 3°35.28 267.6 12.3 260 10
2005-10-04 12:21:52 51°44.349 3°34.954 266.6 12.3 260 10.6
2005-10-04 12:22:52 51°44.312 3°34.627 265.4 12.5 257 11.4
2005-10-04 12:23:52 51°44.265 3°34.303 264.3 12.3 257 11.1
2005-10-04 12:24:52 51°44.22 3°33.983 264.2 12.3 258 10.8
2005-10-04 12:25:52 51°44.174 3°33.661 262.7 12.3 256 13.2
2005-10-04 12:26:52 51°44.09 3°33.355 248.5 12.5 243 14.9
2005-10-04 12:27:52 51°43.945 3°33.105 228.5 12.8 223 15.5
2005-10-04 12:28:53 51°43.761 3°32.912 214.6 13.3 209 15.7
2005-10-04 12:29:53 51°43.56 3°32.777 203.3 12.9 196 15.7
2005-10-04 12:30:53 51°43.351 3°32.692 197.9 13 192 15
2005-10-04 12:31:52 51°43.14 3°32.616 200.4 13.3 195 14.2
2005-10-04 12:32:52 51°42.923 3°32.566 191.4 13 182 13.6
2005-10-04 12:33:52 51°42.708 3°32.627 166.2 13.4 160 13.5
2005-10-04 12:34:52 51°42.505 3°32.788 157.5 13.5 152 14.8
2005-10-04 12:35:52 51°42.3 3°32.954 158.2 13.9 153 13.9
2005-10-04 12:36:52 51°42.094 3°33.117 159.8 13.7 154 12.7
2005-10-04 12:37:52 51°41.889 3°33.28 158.5 13.7 155 13.2
2005-10-04 12:38:52 51°41.682 3°33.442 159.1 13.7 154 14.2
2005-10-04 12:39:52 51°41.476 3°33.598 160.4 13.8 154 14
2005-10-04 12:40:52 51°41.272 3°33.758 159.3 13.5 153 14.2
2005-10-04 12:41:52 51°41.067 3°33.917 161.1 13.6 155 14.3
2005-10-04 12:42:52 51°40.864 3°34.081 158.9 13.6 152 14.3
2005-10-04 12:43:52 51°40.659 3°34.23 169.1 13.2 166 14.9
2005-10-04 12:44:53 51°40.444 3°34.228 195.9 12.2 193 14.5
2005-10-04 12:45:52 51°40.281 3°34.061 227.2 11.8 223 14.5
2005-10-04 12:46:52 51°40.142 3°33.845 230.3 11.6 221 15.7
2005-10-04 12:47:52 51°40.002 3°33.637 230.5 11.4 225 15.3
2005-10-04 12:48:53 51°39.865 3°33.423 231.4 11.1 227 14.3
2005-10-04 12:49:52 51°39.76 3°33.189 242.4 11 235 13.8
2005-10-04 12:50:52 51°39.653 3°32.946 239.6 11.2 234 13.9
2005-10-04 12:51:53 51°39.558 3°32.688 245.3 11.2 241 16.5
2005-10-04 12:52:52 51°39.479 3°32.425 252.3 11 247 18.6
2005-10-04 12:53:52 51°39.402 3°32.16 251.9 10.8 245 19.1
2005-10-04 12:54:52 51°39.328 3°31.893 251.1 11 248 20.3
2005-10-04 12:55:52 51°39.251 3°31.624 251.7 11.2 242 17.7
2005-10-04 12:56:52 51°39.147 3°31.38 230.9 11.3 222 17.8
2005-10-04 12:57:52 51°38.97 3°31.261 208.3 11.4 199 15.4
2005-10-04 12:58:53 51°38.785 3°31.148 212.1 11.8 205 13.8
2005-10-04 12:59:52 51°38.607 3°31.037 208 11.7 201 12.1
2005-10-04 13:00:53 51°38.421 3°30.92 207.5 11.9 198 12.4
2005-10-04 13:01:52 51°38.238 3°30.816 208.3 11.8 202 12.3
2005-10-04 13:02:52 51°38.051 3°30.708 209.4 11.8 200 12.5
2005-10-04 13:03:52 51°37.865 3°30.603 208.9 11.7 198 11.5
2005-10-04 13:04:53 51°37.674 3°30.5 210.4 11.9 201 12.2
2005-10-04 13:05:52 51°37.49 3°30.39 209.7 12.1 200 12.7
2005-10-04 13:06:52 51°37.301 3°30.277 209.5 12.3 202 12.7
2005-10-04 13:07:53 51°37.115 3°30.207 186.5 9.7 172 12.9
2005-10-04 13:08:53 51°36.985 3°30.278 166.2 7.6 153 13.5
2005-10-04 13:09:53 51°36.882 3°30.392 155.3 7.4 141 12.7
2005-10-04 13:10:53 51°36.798 3°30.536 138.6 7.3 131 12.8
2005-10-04 13:11:53 51°36.741 3°30.692 123.7 6.3 113 12.6
2005-10-04 13:12:52 51°36.713 3°30.838 106.5 5.6 100 12.5
2005-10-04 13:13:53 51°36.705 3°30.982 91.9 5.2 92 12.9
2005-10-04 13:14:52 51°36.71 3°31.115 79.1 5 84 13.6
2005-10-04 13:15:53 51°36.723 3°31.243 71.1 4.8 78 13.2
2005-10-04 13:16:53 51°36.744 3°31.359 62.2 4.4 72 13.7
2005-10-04 13:17:53 51°36.767 3°31.467 53.3 4 67 13.6
2005-10-04 13:18:53 51°36.799 3°31.559 43.1 4 59 13.6
2005-10-04 13:19:52 51°36.84 3°31.637 29.9 3.9 45 13.4
2005-10-04 13:20:53 51°36.889 3°31.711 19.9 3.8 35 13.1
2005-10-04 13:21:52 51°36.938 3°31.767 18.3 3.7 37 12.9
2005-10-04 13:22:53 51°36.988 3°31.804 -999 3.1 16 12.8
2005-10-04 13:23:53 51°37.036 3°31.824 348.7 2.8 5 12.6
2005-10-04 13:24:52 51°37.079 3°31.813 330.9 2.6 341 12.5
2005-10-04 13:25:53 51°37.117 3°31.778 317.6 2.7 329 12.4
2005-10-04 13:26:52 51°37.145 3°31.731 300.4 2.4 302 12.3
2005-10-04 13:27:53 51°37.156 3°31.665 278.6 2.4 278 12.3
2005-10-04 13:28:52 51°37.15 3°31.595 264.6 2.8 253 12.4
2005-10-04 13:29:53 51°37.13 3°31.52 256.9 3.1 248 12.4
2005-10-04 13:30:52 51°37.098 3°31.46 232.1 3.2 212 12.6
2005-10-04 13:31:53 51°37.043 3°31.422 215.5 3.8 196 12.6
2005-10-04 13:32:53 51°36.977 3°31.41 196.6 4.1 180 12.7
2005-10-04 13:33:52 51°36.932 3°31.372 248.4 2.5 236 12.9
2005-10-04 13:34:53 51°36.923 3°31.305 270.7 2.8 267 13
2005-10-04 13:35:53 51°36.921 3°31.231 272.1 2.7 266 13
2005-10-04 13:36:53 51°36.917 3°31.16 272.9 2.6 268 13.1
2005-10-04 13:37:53 51°36.914 3°31.094 270 2.5 264 13.1
2005-10-04 13:38:53 51°36.908 3°31.03 268.3 2.4 262 13.3
2005-10-04 13:39:52 51°36.9 3°30.963 266.3 2.7 256 13.2
2005-10-04 13:40:53 51°36.89 3°30.891 265.2 2.7 256 13.2
2005-10-04 13:41:53 51°36.879 3°30.822 264.2 2.7 256 13.3
2005-10-04 13:42:52 51°36.868 3°30.753 263.9 2.7 257 13.1
2005-10-04 13:43:53 51°36.857 3°30.683 263.5 2.7 259 13
2005-10-04 13:44:53 51°36.846 3°30.614 263.3 2.7 255 13.2
2005-10-04 13:45:53 51°36.837 3°30.546 265.6 2.6 257 12.9
2005-10-04 13:46:53 51°36.828 3°30.478 266.2 2.6 257 13
2005-10-04 13:47:53 51°36.819 3°30.411 266.7 2.5 255 13
2005-10-04 13:48:53 51°36.81 3°30.342 267.2 2.7 264 13
2005-10-04 13:49:53 51°36.802 3°30.272 265.5 2.7 254 13.2
2005-10-04 13:50:53 51°36.793 3°30.201 265.9 2.7 259 13.2
2005-10-04 13:51:52 51°36.783 3°30.132 265.1 2.7 257 13
2005-10-04 13:52:53 51°36.773 3°30.06 265.1 2.7 258 13.1
2005-10-04 13:53:52 51°36.763 3°29.99 265.9 2.8 257 12.6
2005-10-04 13:54:53 51°36.753 3°29.918 265.6 2.7 255 12.3
2005-10-04 13:55:53 51°36.744 3°29.848 265.3 2.6 258 12.7
2005-10-04 13:56:53 51°36.735 3°29.776 266 2.7 260 11.8
2005-10-04 13:57:53 51°36.727 3°29.705 266.6 2.8 261 11.5
2005-10-04 13:58:53 51°36.721 3°29.633 265.7 2.7 263 10.7
2005-10-04 13:59:53 51°36.712 3°29.563 263.6 2.7 262 10.9
2005-10-04 14:00:53 51°36.704 3°29.493 263.5 2.7 257 11
2005-10-04 14:01:52 51°36.695 3°29.423 263.8 2.6 256 10.8
2005-10-04 14:02:53 51°36.688 3°29.351 266.1 2.8 263 11.2
2005-10-04 14:03:53 51°36.681 3°29.28 263.5 2.7 256 10.2
2005-10-04 14:04:53 51°36.673 3°29.211 266.3 2.6 262 10.9
2005-10-04 14:05:53 51°36.666 3°29.141 266.3 2.7 260 11.1
2005-10-04 14:06:52 51°36.66 3°29.07 266.8 2.8 266 11.3
2005-10-04 14:07:52 51°36.656 3°28.997 267.4 2.7 257 10.7
2005-10-04 14:08:53 51°36.651 3°28.925 265.9 2.6 262 11.2
2005-10-04 14:09:52 51°36.645 3°28.859 266.4 2.5 262 11.1
2005-10-04 14:10:52 51°36.641 3°28.79 265.2 2.5 262 11.3
2005-10-04 14:11:52 51°36.641 3°28.723 275.8 2.2 280 10.6
2005-10-04 14:12:53 51°36.65 3°28.686 290.3 1.1 307 10.9
2005-10-04 14:13:52 51°36.659 3°28.672 299.2 0.5 321 11.2
2005-10-04 14:14:52 51°36.675 3°28.642 300.3 2.7 303 11.2
2005-10-04 14:15:53 51°36.689 3°28.555 276 3.5 276 10.8
2005-10-04 14:16:52 51°36.699 3°28.468 280 3.4 281 11
2005-10-04 14:17:52 51°36.713 3°28.386 280.4 3 284 11.2
2005-10-04 14:18:52 51°36.725 3°28.311 280.9 2.8 281 10.9
2005-10-04 14:19:53 51°36.74 3°28.24 287.4 2.8 291 11.3
2005-10-04 14:20:53 51°36.751 3°28.17 276.6 2.6 275 11.2
2005-10-04 14:21:52 51°36.751 3°28.104 264.9 2.5 260 11.1
2005-10-04 14:22:52 51°36.746 3°28.036 264.9 2.6 265 10.9
2005-10-04 14:23:52 51°36.739 3°27.968 259.5 2.5 257 11.2
2005-10-04 14:24:52 51°36.73 3°27.901 256.9 2.6 255 11.4
2005-10-04 14:25:52 51°36.716 3°27.836 250.4 2.6 247 11.1
2005-10-04 14:26:53 51°36.701 3°27.77 255.2 2.6 257 10.5
2005-10-04 14:27:53 51°36.691 3°27.703 258.2 2.5 255 10.5
2005-10-04 14:28:53 51°36.679 3°27.638 249.9 2.5 241 11.2
2005-10-04 14:29:53 51°36.656 3°27.58 241.6 2.6 235 11.7
2005-10-04 14:30:52 51°36.635 3°27.52 246.3 2.6 237 12.1
2005-10-04 14:31:52 51°36.614 3°27.456 248.5 2.7 246 12.3
2005-10-04 14:32:52 51°36.594 3°27.392 245.9 2.7 237 12.9
2005-10-04 14:33:53 51°36.573 3°27.33 248.8 2.5 243 13
2005-10-04 14:34:52 51°36.561 3°27.269 257.4 2.4 256 12.7
2005-10-04 14:35:52 51°36.551 3°27.206 257.9 2.4 259 12.9
2005-10-04 14:36:52 51°36.544 3°27.143 261.4 2.3 262 13.3
2005-10-04 14:37:52 51°36.538 3°27.081 259.8 2.4 261 12.8
2005-10-04 14:38:53 51°36.53 3°27.018 258.3 2.4 256 13.3
2005-10-04 14:39:52 51°36.523 3°26.956 261.2 2.4 264 13
2005-10-04 14:40:53 51°36.519 3°26.888 263.5 2.5 271 13.3
2005-10-04 14:41:52 51°36.516 3°26.824 262.9 2.4 264 12.9
2005-10-04 14:42:53 51°36.514 3°26.757 263.8 2.4 265 13.1
2005-10-04 14:43:52 51°36.508 3°26.695 255.2 2.2 251 11.8
2005-10-04 14:44:52 51°36.498 3°26.635 254.2 2.4 257 13
2005-10-04 14:45:52 51°36.49 3°26.572 258.3 2.5 262 13.3
2005-10-04 14:46:53 51°36.488 3°26.502 265.8 2.6 273 12.3
2005-10-04 14:47:53 51°36.496 3°26.434 280.1 2.7 285 13
2005-10-04 14:48:52 51°36.514 3°26.366 290.8 3 297 12.8
2005-10-04 14:49:52 51°36.54 3°26.302 299 2.7 307 12.9
2005-10-04 14:50:53 51°36.563 3°26.26 305.6 1.6 318 12.3
2005-10-04 14:51:52 51°36.581 3°26.238 312.4 1.3 328 10.8
2005-10-04 14:52:52 51°36.594 3°26.23 318.6 0.8 353 10.6
2005-10-04 14:53:52 51°36.604 3°26.227 319.3 0.4 7 10.5
2005-10-04 14:54:52 51°36.608 3°26.228 311.3 0.2 4 10.4
2005-10-04 14:55:52 51°36.612 3°26.228 303.4 0.2 3 10.2
2005-10-04 14:56:53 51°36.63 3°26.177 291.5 4.2 291 11.4
2005-10-04 14:57:52 51°36.603 3°26.011 246 8.8 246 12.7
2005-10-04 14:58:52 51°36.526 3°25.749 247.5 11.3 244 12.1
2005-10-04 14:59:52 51°36.45 3°25.457 246.4 12.1 248 12.7
2005-10-04 15:00:53 51°36.375 3°25.156 247.8 12 250 12.7
2005-10-04 15:01:53 51°36.298 3°24.856 243.2 12.4 251 13.8
2005-10-04 15:02:52 51°36.213 3°24.572 242.8 12.2 244 13.3
2005-10-04 15:03:53 51°36.129 3°24.276 244.4 11.9 242 13.5
2005-10-04 15:04:53 51°36.044 3°23.98 244.6 12.1 243 12.9
2005-10-04 15:05:52 51°35.961 3°23.689 245 12.3 244 13.1
2005-10-04 15:06:52 51°35.876 3°23.39 247 12.3 245 12.9
2005-10-04 15:07:52 51°35.792 3°23.09 247.5 12.1 245 13
2005-10-04 15:08:52 51°35.706 3°22.792 243.2 12.2 244 12.5
2005-10-04 15:09:52 51°35.62 3°22.5 246.6 11.9 249 12
2005-10-04 15:10:53 51°35.532 3°22.201 245 12 245 12
2005-10-04 15:11:52 51°35.444 3°21.913 245.5 12.3 242 11.6
2005-10-04 15:12:53 51°35.361 3°21.607 247.2 12.3 249 11.4
2005-10-04 15:13:53 51°35.272 3°21.313 242 12.5 246 11.1
2005-10-04 15:14:52 51°35.188 3°21.02 245.7 12 244 11.5
2005-10-04 15:15:52 51°35.107 3°20.717 248.2 12.3 242 12.7
2005-10-04 15:16:53 51°35.021 3°20.413 245.3 12.5 248 14
2005-10-04 15:17:53 51°34.935 3°20.118 243.5 12.3 246 14.7
2005-10-04 15:18:52 51°34.838 3°19.842 238.1 12.2 243 15
2005-10-04 15:19:53 51°34.735 3°19.559 241.1 11.8 239 15.7
2005-10-04 15:20:52 51°34.636 3°19.286 241.3 11.9 240 16
2005-10-04 15:21:52 51°34.534 3°19.011 239.5 11.9 242 15.6
2005-10-04 15:22:53 51°34.434 3°18.722 240.9 12.2 247 14.5
2005-10-04 15:23:52 51°34.338 3°18.441 243.9 12.3 242 16.3
2005-10-04 15:24:52 51°34.238 3°18.156 238.9 12.2 241 14.6
2005-10-04 15:25:52 51°34.137 3°17.876 240.9 12.2 233 15.9
2005-10-04 15:26:53 51°34.035 3°17.586 241.4 12.3 240 15.4
2005-10-04 15:27:52 51°33.941 3°17.301 242.1 12.4 240 16
2005-10-04 15:28:53 51°33.842 3°17.003 240.9 12.2 244 16.8
2005-10-04 15:29:53 51°33.744 3°16.717 241.3 12.4 243 17.4
2005-10-04 15:30:53 51°33.646 3°16.428 240.6 12.2 242 16.8
2005-10-04 15:31:52 51°33.552 3°16.146 243.7 12.1 236 17.7
2005-10-04 15:32:52 51°33.458 3°15.855 242.6 12.1 247 18.3
2005-10-04 15:33:53 51°33.357 3°15.562 239.9 12.6 242 18.8
2005-10-04 15:34:52 51°33.262 3°15.281 241.1 12.3 242 19.3
2005-10-04 15:35:52 51°33.162 3°14.998 242.6 12.6 244 19.4
2005-10-04 15:36:52 51°33.064 3°14.712 240.2 12.5 239 19.6
2005-10-04 15:37:53 51°32.965 3°14.415 240.5 12.5 244 20.4
2005-10-04 15:38:52 51°32.863 3°14.14 238.7 12.2 236 20.5
2005-10-04 15:39:53 51°32.763 3°13.851 238 12 234 20.7
2005-10-04 15:40:53 51°32.662 3°13.574 238.9 12.3 242 20.9
2005-10-04 15:41:53 51°32.559 3°13.294 242.2 12.3 244 21.1
2005-10-04 15:42:53 51°32.457 3°13.009 239.7 12.3 242 21.4
2005-10-04 15:43:53 51°32.352 3°12.731 237.3 12.1 236 21
2005-10-04 15:44:53 51°32.247 3°12.455 237.5 12.2 235 21.1
2005-10-04 15:45:53 51°32.142 3°12.177 241.6 12.3 244 21.3
2005-10-04 15:46:53 51°32.04 3°11.896 241.4 12 236 21.1
2005-10-04 15:47:53 51°31.926 3°11.625 233.4 12.7 230 21.2
2005-10-04 15:48:53 51°31.805 3°11.369 229.9 11.9 229 21.4
2005-10-04 15:49:53 51°31.686 3°11.107 235.8 11.6 231 21.6
2005-10-04 15:50:53 51°31.563 3°10.851 231 12.1 232 22
2005-10-04 15:51:53 51°31.436 3°10.592 231.2 12.3 238 20.8
2005-10-04 15:52:53 51°31.316 3°10.329 232.4 12.1 233 21.1
2005-10-04 15:53:53 51°31.188 3°10.077 232.4 12.4 234 20.4
2005-10-04 15:54:52 51°31.069 3°9.815 237.2 12.2 231 20.5
2005-10-04 15:55:53 51°30.943 3°9.549 234.1 12.2 235 20.6
2005-10-04 15:56:53 51°30.818 3°9.289 232.3 12.2 234 21.2
2005-10-04 15:57:53 51°30.696 3°9.028 232.6 12.3 234 20.8
2005-10-04 15:58:53 51°30.575 3°8.764 233.3 12.1 233 21
2005-10-04 15:59:53 51°30.451 3°8.506 231.6 12 231 20.8
2005-10-04 16:00:53 51°30.33 3°8.236 236.6 13 235 21.4
2005-10-04 16:01:53 51°30.204 3°7.963 235.8 12.7 232 20.9
2005-10-04 16:02:53 51°30.078 3°7.694 233 12.8 234 21
2005-10-04 16:03:53 51°29.954 3°7.425 232.2 12.7 234 21
2005-10-04 16:04:53 51°29.826 3°7.161 233.2 12.3 228 21
2005-10-04 16:05:53 51°29.702 3°6.895 233 12.7 235 21.1
2005-10-04 16:06:53 51°29.575 3°6.623 236.7 12.6 235 21.1
2005-10-04 16:07:53 51°29.453 3°6.354 234.5 12.5 235 21.2
2005-10-04 16:08:53 51°29.326 3°6.075 231.4 13.4 239 21.2
2005-10-04 16:09:53 51°29.197 3°5.806 230.7 13.3 234 21.2
2005-10-04 16:10:53 51°29.07 3°5.539 234.2 12.2 232 21.5
2005-10-04 16:11:53 51°28.941 3°5.267 233.5 13.1 234 21.3
2005-10-04 16:12:53 51°28.809 3°4.998 230.5 12.9 231 21.6
2005-10-04 16:13:53 51°28.679 3°4.725 232.8 13.2 229 21.6
2005-10-04 16:14:53 51°28.549 3°4.461 232.9 12.8 231 21.7
2005-10-04 16:15:53 51°28.424 3°4.185 231.6 12.9 231 21.6
2005-10-04 16:16:53 51°28.292 3°3.918 231.7 12.6 229 21.7
2005-10-04 16:17:53 51°28.167 3°3.644 233.7 12.6 229 21.7
2005-10-04 16:18:53 51°28.039 3°3.372 232.3 12.7 229 21.7
2005-10-04 16:19:53 51°27.908 3°3.104 233.5 12.9 232 21.5
2005-10-04 16:20:53 51°27.779 3°2.826 232.3 12.9 233 21.4
2005-10-04 16:21:53 51°27.65 3°2.553 232.8 12.8 229 20.6
2005-10-04 16:22:53 51°27.522 3°2.279 233.2 13 233 20
2005-10-04 16:23:53 51°27.394 3°2.011 229.7 12.2 232 19.1
2005-10-04 16:24:52 51°27.273 3°1.737 239 12.8 237 20
2005-10-04 16:25:53 51°27.159 3°1.448 239.5 12.8 238 18.6
2005-10-04 16:26:53 51°27.046 3°1.16 240.6 12.6 233 17.7
2005-10-04 16:27:53 51°26.932 3°0.874 237.4 13 233 22.2
2005-10-04 16:28:53 51°26.822 3°0.584 239.6 12.8 243 24.4
2005-10-04 16:29:53 51°26.708 3°0.295 239.9 12.9 242 25.5
2005-10-04 16:30:53 51°26.594 3°0.006 237.5 13.2 239 25.7
2005-10-04 16:31:53 51°26.479 2°59.714 238.2 12.8 238 25.7
2005-10-04 16:32:53 51°26.366 2°59.427 242.2 12.2 238 25.6
2005-10-04 16:33:53 51°26.229 2°59.18 217.6 12.2 215 25.7
2005-10-04 16:34:53 51°26.029 2°59.108 188.8 12.6 184 25.5
2005-10-04 16:35:52 51°25.822 2°59.097 181.2 12.8 184 23.9
2005-10-04 16:36:53 51°25.611 2°59.082 186.7 13.2 186 22.4
2005-10-04 16:37:53 51°25.403 2°59.048 188.5 12.1 187 21.2
2005-10-04 16:38:52 51°25.218 2°58.895 215.7 12.8 211 20.2
2005-10-04 16:39:53 51°25.035 2°58.71 211.8 13 214 19.4
2005-10-04 16:40:52 51°24.86 2°58.533 215.9 12.4 206 19.4
2005-10-04 16:41:53 51°24.674 2°58.355 209.1 12.5 208 18.7
2005-10-04 16:42:53 51°24.49 2°58.183 211.2 13.5 216 17.5
2005-10-04 16:43:53 51°24.309 2°58.003 215.5 12.6 212 17.5
2005-10-04 16:44:52 51°24.132 2°57.815 214.2 13.1 218 16.2
2005-10-04 16:45:53 51°23.953 2°57.623 213.4 12.6 214 16.4
2005-10-04 16:46:52 51°23.776 2°57.44 211.6 12.6 209 16.9
2005-10-04 16:47:52 51°23.596 2°57.259 215.6 12.3 217 13.1
2005-10-04 16:48:53 51°23.412 2°57.066 211.5 12.9 210 18
2005-10-04 16:49:52 51°23.236 2°56.874 219.4 13.5 219 17.7
2005-10-04 16:50:52 51°23.088 2°56.623 233.5 12.7 234 18.1
2005-10-04 16:51:52 51°22.976 2°56.324 241.7 13.2 244 18.2
2005-10-04 16:52:53 51°22.859 2°56.021 237.3 13.5 241 18.1
2005-10-04 16:53:52 51°22.723 2°55.756 225.3 13.3 228 18.4
2005-10-04 16:54:52 51°22.549 2°55.539 213.3 13.4 212 18.3
2005-10-04 16:55:53 51°22.348 2°55.39 201 13.2 201 18.8
2005-10-04 16:56:53 51°22.144 2°55.247 204 13.5 204 18.3
2005-10-04 16:57:53 51°21.947 2°55.099 205 13.5 204 17.4
2005-10-04 16:58:53 51°21.744 2°54.956 202.4 13.3 204 17.4
2005-10-04 16:59:53 51°21.542 2°54.813 205.5 13.3 204 17.1
2005-10-04 17:00:52 51°21.344 2°54.662 203.7 13.3 203 17
2005-10-04 17:01:53 51°21.138 2°54.514 203.3 12.9 204 16.6
2005-10-04 17:02:53 51°20.94 2°54.367 202.8 12.9 202 16.6
2005-10-04 17:03:52 51°20.744 2°54.22 204.8 13.4 205 16.4
2005-10-04 17:04:53 51°20.541 2°54.074 205.8 13.2 205 16.1
2005-10-04 17:05:53 51°20.34 2°53.926 203.7 13.7 204 15.7
2005-10-04 17:06:53 51°20.137 2°53.768 206.3 13.8 206 15.2
2005-10-04 17:07:53 51°19.935 2°53.61 203.1 13.4 204 14.7
2005-10-04 17:08:53 51°19.732 2°53.456 202.4 13.7 207 13.9
2005-10-04 17:09:53 51°19.533 2°53.302 205.4 13.6 208 13.3
2005-10-04 17:10:53 51°19.332 2°53.144 203 13.4 205 12.8
2005-10-04 17:11:53 51°19.135 2°52.988 207.3 12.8 206 12.4
2005-10-04 17:12:53 51°18.936 2°52.831 203.6 13.4 204 11.8
2005-10-04 17:13:53 51°18.733 2°52.67 206.6 13.3 206 11.5
2005-10-04 17:14:52 51°18.533 2°52.522 198.6 13.5 199 11
2005-10-04 17:15:53 51°18.32 2°52.41 193.4 13.4 195 10.7
2005-10-04 17:16:53 51°18.105 2°52.315 195.2 13.4 196 10.3
2005-10-04 17:17:53 51°17.888 2°52.236 189.9 13.7 191 9.9
2005-10-04 17:18:53 51°17.67 2°52.167 189.2 13.1 193 10.1
2005-10-04 17:19:52 51°17.459 2°52.146 171.8 12.6 170 10
2005-10-04 17:20:53 51°17.258 2°52.263 151.6 12.4 155 9.9
2005-10-04 17:21:52 51°17.072 2°52.409 151.6 12.5 158 9.4
2005-10-04 17:22:52 51°16.875 2°52.538 159.9 13.3 160 9.4
2005-10-04 17:23:52 51°16.671 2°52.638 160.3 12.4 165 10.1
2005-10-04 17:24:52 51°16.466 2°52.744 160.5 13.2 156 11.1
2005-10-04 17:25:52 51°16.258 2°52.839 161.9 13.6 164 11.5
2005-10-04 17:26:53 51°16.049 2°52.94 161.4 13.5 161 11.3
2005-10-04 17:27:53 51°15.843 2°53.04 159.4 12.7 165 11.2
2005-10-04 17:28:53 51°15.635 2°53.142 161 13.6 160 10.3
2005-10-04 17:29:53 51°15.429 2°53.237 158.8 12.7 162 10
2005-10-04 17:30:53 51°15.248 2°53.394 137 11.9 130 9.4
2005-10-04 17:31:53 51°15.097 2°53.61 132.3 12.7 137 8.8
2005-10-04 17:32:52 51°14.952 2°53.83 133.1 12.3 133 8.4
2005-10-04 17:33:52 51°14.811 2°54.062 125.8 12 128 8.7
2005-10-04 17:34:52 51°14.682 2°54.304 123.3 11.5 129 9.1
2005-10-04 17:35:52 51°14.557 2°54.54 126.2 12.1 130 9.5
2005-10-04 17:36:52 51°14.443 2°54.788 118 11.1 118 9.4
2005-10-04 17:37:52 51°14.354 2°55.054 117 11.4 120 9.6
2005-10-04 17:38:56 51°14.243 2°55.298 135.7 9.8 134 9.8
2005-10-04 17:39:56 51°14.115 2°55.417 157.4 8 155 -999
2005-10-04 17:40:56 51°13.987 2°55.508 158.2 8.7 156 -999
2005-10-04 17:41:56 51°13.864 2°55.599 157.4 7.2 155 -999
2005-10-04 17:42:56 51°13.781 2°55.68 144.7 5.1 141 -999
2005-10-04 17:43:56 51°13.724 2°55.764 138.6 4.2 136 -999
2005-10-04 17:44:56 51°13.682 2°55.846 119 3.8 118 -999
2005-10-04 17:45:56 51°13.666 2°55.934 102.9 2.6 101 -999